Time;durP1;ratioP1;P1;durP2;ratioP2;P2;SDS_P1;SDS_P2;PMS_P1;PMS_P2;Temp;Humidity;BMP_temperature;BMP_pressure;BME280_temperature;BME280_humidity;BME280_pressure;Samples;Min_cycle;Max_cycle;Signal;HPM_P1;HPM_P2
2022/12/23 00:02:43;;;;;;;293.52;86.18;;;;;;;11.28;79.24;98969.56;4949014;29;20059;-62
2022/12/23 00:05:32;;;;;;;318.73;89.25;;;;;;;11.05;79.96;98975.44;4941193;29;20092;-62
2022/12/23 00:08:18;;;;;;;295.80;85.15;;;;;;;11.19;79.86;98981.56;4943273;29;20657;-62
2022/12/23 00:11:07;;;;;;;293.10;83.68;;;;;;;11.54;78.32;98969.47;4938319;29;20103;-61
2022/12/23 00:17:02;;;;;;;304.02;87.15;;;;;;;11.31;78.35;98977.19;4931489;29;20490;-62
2022/12/23 00:20:04;;;;;;;283.33;83.75;;;;;;;11.50;78.95;98987.06;4929718;29;20083;-62
2022/12/23 00:23:05;;;;;;;305.85;88.20;;;;;;;11.75;77.95;98975.53;4936604;29;20538;-62
2022/12/23 00:25:46;;;;;;;316.50;88.28;;;;;;;11.59;78.47;98970.69;4935661;29;20062;-62
2022/12/23 00:28:37;;;;;;;301.10;89.20;;;;;;;11.27;78.61;98973.28;4939581;29;20055;-62
2022/12/23 00:31:33;;;;;;;296.75;86.45;;;;;;;11.65;79.01;98985.94;4946201;28;20050;-62
2022/12/23 00:34:10;;;;;;;310.35;90.15;;;;;;;11.74;77.84;98980.09;4928192;29;20134;-62
2022/12/23 00:37:06;;;;;;;311.27;87.75;;;;;;;11.94;77.68;98984.56;4942702;29;20610;-62
2022/12/23 00:42:55;;;;;;;321.67;88.68;;;;;;;11.80;77.35;98975.72;4947263;29;20142;-62
2022/12/23 00:45:30;;;;;;;300.85;88.05;;;;;;;11.43;77.80;98983.56;4929916;29;20066;-63
2022/12/23 00:51:19;;;;;;;315.70;89.63;;;;;;;11.84;77.48;98978.81;4927901;29;20051;-63
2022/12/23 00:54:15;;;;;;;309.15;89.38;;;;;;;12.04;77.00;98976.88;4928723;29;20075;-60
2022/12/23 00:56:57;;;;;;;300.20;89.10;;;;;;;11.47;77.53;98979.41;4929694;28;20043;-62
2022/12/23 00:59:47;;;;;;;286.75;86.53;;;;;;;11.49;77.93;98981.88;4927690;29;20103;-61
2022/12/23 01:05:37;;;;;;;309.70;87.47;;;;;;;10.84;80.45;98993.44;4947899;29;20075;-61
2022/12/23 01:08:26;;;;;;;301.17;87.15;;;;;;;11.44;78.43;98985.19;4943414;29;20435;-63
2022/12/23 01:11:15;;;;;;;303.65;87.22;;;;;;;11.49;78.81;99003.38;4934476;29;20047;-63
2022/12/23 01:14:04;;;;;;;323.95;86.07;;;;;;;11.50;78.90;99021.16;4935508;29;20077;-62
2022/12/23 01:16:47;;;;;;;285.60;82.63;;;;;;;11.89;77.81;99024.72;4944752;29;20483;-62
2022/12/23 01:19:36;;;;;;;307.13;86.90;;;;;;;11.56;76.87;99026.50;4947355;29;20071;-62
2022/12/23 01:22:18;;;;;;;282.42;82.97;;;;;;;11.62;78.57;99029.41;4940889;29;20670;-63
2022/12/23 01:25:07;;;;;;;298.35;85.63;;;;;;;11.25;79.02;99037.13;4930173;29;20059;-62
2022/12/23 01:27:55;;;;;;;297.92;84.38;;;;;;;11.30;79.16;99038.16;4937981;29;20047;-63
2022/12/23 01:30:37;;;;;;;294.17;85.30;;;;;;;11.52;79.06;99043.25;4943344;29;20051;-63
2022/12/23 01:33:27;;;;;;;284.58;85.45;;;;;;;11.86;78.16;99046.66;4929321;29;20357;-62
2022/12/23 01:36:10;;;;;;;319.35;88.60;;;;;;;11.83;77.70;99047.91;4927786;29;20464;-63
2022/12/23 01:39:00;;;;;;;302.60;89.05;;;;;;;11.85;76.98;99043.16;4945555;29;20051;-62
2022/12/23 01:45:03;;;;;;;305.08;87.60;;;;;;;11.76;76.98;99057.88;4946556;29;20066;-62
2022/12/23 01:47:55;;;;;;;309.40;85.68;;;;;;;11.92;77.20;99051.19;4946233;28;20083;-63
2022/12/23 01:51:04;;;;;;;301.85;86.65;;;;;;;11.99;76.47;99052.00;4932573;29;20482;-51
2022/12/23 01:54:05;;;;;;;308.08;86.30;;;;;;;11.65;76.97;99055.84;4934621;29;20063;-54
2022/12/23 01:56:47;;;;;;;302.50;86.68;;;;;;;12.00;76.60;99067.09;4944478;28;20479;-53
2022/12/23 02:05:51;;;;;;;316.50;94.18;;;;;;;11.97;76.55;99072.09;4946740;29;20055;-54
2022/12/23 02:11:52;;;;;;;309.45;90.70;;;;;;;12.01;76.14;99073.31;4929025;29;20055;-57
2022/12/23 02:18:11;;;;;;;299.75;87.65;;;;;;;12.03;76.43;99081.97;4935157;29;20738;-55
2022/12/23 02:21:12;;;;;;;289.42;86.55;;;;;;;11.96;76.25;99095.47;4939393;29;20137;-52
2022/12/23 02:24:23;;;;;;;293.85;89.22;;;;;;;12.23;75.38;99088.09;4939019;29;20043;-53
2022/12/23 02:27:17;;;;;;;303.98;88.00;;;;;;;12.29;74.71;99095.31;4945415;29;20051;-54
2022/12/23 02:30:14;;;;;;;296.15;89.75;;;;;;;12.34;74.49;99097.34;4945759;29;20075;-51
2022/12/23 02:34:00;;;;;;;325.40;94.20;;;;;;;11.64;76.07;99099.91;4945911;29;20062;-51
2022/12/23 02:36:49;;;;;;;295.40;89.53;;;;;;;11.79;76.18;99100.47;4878369;29;20040;-56
2022/12/23 02:39:52;;;;;;;312.77;92.82;;;;;;;11.95;75.87;99097.31;4936098;29;20051;-58
2022/12/23 02:42:36;;;;;;;310.92;94.70;;;;;;;12.05;74.73;99096.84;4945410;28;20412;-51
2022/12/23 02:45:45;;;;;;;328.48;92.57;;;;;;;12.03;74.90;99095.44;4927063;29;20107;-53
2022/12/23 02:48:45;;;;;;;309.27;92.80;;;;;;;11.95;75.45;99100.00;4940734;29;20055;-54
2022/12/23 02:51:39;;;;;;;313.42;87.35;;;;;;;11.51;77.03;99106.94;4926391;29;20052;-53
2022/12/23 02:54:39;;;;;;;316.42;91.25;;;;;;;11.65;76.55;99112.28;4939447;29;20459;-54
2022/12/23 02:57:42;;;;;;;312.60;92.68;;;;;;;12.13;75.62;99120.84;4941013;28;20451;-57
2022/12/23 03:00:18;;;;;;;306.98;90.72;;;;;;;12.22;74.85;99125.97;4935766;29;20059;-56
2022/12/23 03:03:08;;;;;;;300.02;89.35;;;;;;;12.10;74.91;99133.91;4946332;29;20047;-58
2022/12/23 03:05:59;;;;;;;285.63;89.70;;;;;;;12.23;74.49;99127.59;4948883;29;20475;-52
2022/12/23 03:08:44;;;;;;;284.80;86.05;;;;;;;12.38;74.59;99133.56;4913472;29;20126;-57
2022/12/23 03:11:48;;;;;;;300.92;88.75;;;;;;;11.85;76.13;99142.66;4940175;29;20055;-54
2022/12/23 03:14:40;;;;;;;298.65;86.78;;;;;;;12.20;75.21;99145.03;4941269;29;20047;-54
2022/12/23 03:17:46;;;;;;;307.55;91.53;;;;;;;12.27;74.81;99136.94;4940162;29;20067;-53
2022/12/23 03:20:49;;;;;;;317.77;93.03;;;;;;;12.36;73.87;99143.69;4938234;29;20055;-54
2022/12/23 03:23:48;;;;;;;302.33;91.65;;;;;;;12.15;74.29;99142.13;4938450;29;20467;-57
2022/12/23 03:26:38;;;;;;;305.40;94.95;;;;;;;12.40;73.73;99154.84;4938846;29;20047;-56
2022/12/23 03:29:48;;;;;;;309.95;93.15;;;;;;;12.30;74.07;99164.22;4939479;29;20063;-52
2022/12/23 03:32:52;;;;;;;308.73;95.05;;;;;;;12.14;73.79;99162.03;4939259;29;20126;-56
2022/12/23 03:35:51;;;;;;;319.83;92.38;;;;;;;12.36;74.24;99164.41;4935806;28;20071;-52
2022/12/23 03:38:49;;;;;;;324.02;93.72;;;;;;;12.33;74.29;99166.50;4933124;29;20462;-52
2022/12/23 03:41:40;;;;;;;310.45;90.70;;;;;;;11.99;75.10;99172.22;4942869;29;20073;-50
2022/12/23 03:44:43;;;;;;;303.92;93.50;;;;;;;12.46;74.24;99181.75;4929481;29;20065;-54
2022/12/23 03:48:23;;;;;;;330.13;96.80;;;;;;;11.83;75.97;99185.06;4932661;29;20563;-52
2022/12/23 03:51:14;;;;;;;328.48;99.05;;;;;;;12.14;75.27;99186.25;4936373;29;20058;-53
2022/12/23 03:54:12;;;;;;;316.77;94.95;;;;;;;12.42;73.97;99182.38;4938375;29;20050;-53
2022/12/23 03:57:02;;;;;;;318.88;96.03;;;;;;;12.54;73.72;99183.38;4942767;28;20047;-56
2022/12/23 03:59:53;;;;;;;311.23;97.97;;;;;;;12.48;73.37;99187.75;4947871;29;20085;-53
2022/12/23 04:02:52;;;;;;;332.23;98.75;;;;;;;12.42;73.72;99185.91;4938138;29;20130;-56
2022/12/23 04:05:48;;;;;;;326.38;96.65;;;;;;;12.23;74.61;99190.34;4934430;28;20341;-51
2022/12/23 04:08:41;;;;;;;299.70;95.25;;;;;;;12.56;73.54;99193.94;4934682;29;20059;-54
2022/12/23 04:11:33;;;;;;;310.42;95.15;;;;;;;12.27;74.59;99199.66;4935715;29;20055;-51
2022/12/23 04:14:14;;;;;;;315.48;97.82;;;;;;;12.13;74.81;99201.56;4938894;29;20050;-54
2022/12/23 04:17:09;;;;;;;325.27;99.97;;;;;;;12.20;74.33;99193.44;4936511;29;20051;-51
2022/12/23 04:19:59;;;;;;;332.42;99.03;;;;;;;12.68;73.72;99200.28;4941550;29;20145;-52
2022/12/23 04:22:47;;;;;;;321.73;102.93;;;;;;;12.49;74.14;99204.72;4946593;29;20117;-54
2022/12/23 04:25:29;;;;;;;323.42;97.90;;;;;;;12.34;74.61;99205.84;4936369;29;20056;-51
2022/12/23 04:28:19;;;;;;;305.55;99.47;;;;;;;12.41;74.77;99208.47;4930896;29;20083;-54
2022/12/23 04:31:00;;;;;;;343.25;101.68;;;;;;;12.39;74.67;99207.06;4934887;29;20172;-50
2022/12/23 04:33:49;;;;;;;332.65;96.97;;;;;;;12.11;75.24;99217.09;4942915;29;20149;-55
2022/12/23 04:36:32;;;;;;;311.23;99.60;;;;;;;12.56;74.47;99216.28;4937957;29;20048;-53
2022/12/23 04:39:20;;;;;;;313.65;98.47;;;;;;;12.46;73.39;99210.56;4938521;29;20047;-54
2022/12/23 04:42:09;;;;;;;299.67;94.63;;;;;;;12.65;73.10;99220.41;4932134;29;20114;-54
2022/12/23 04:44:52;;;;;;;314.77;99.35;;;;;;;12.39;73.52;99218.63;4936267;29;20082;-55
2022/12/23 04:47:48;;;;;;;331.65;101.43;;;;;;;12.77;72.57;99222.41;4935803;29;20058;-55
2022/12/23 04:50:23;;;;;;;331.48;105.68;;;;;;;12.62;72.85;99220.81;4930948;29;20130;-52
2022/12/23 04:53:18;;;;;;;319.90;98.60;;;;;;;11.89;75.67;99224.59;4938064;29;20114;-54
2022/12/23 04:56:00;;;;;;;317.25;99.75;;;;;;;12.30;74.39;99220.72;4938030;28;20058;-60
2022/12/23 04:58:49;;;;;;;330.90;100.53;;;;;;;12.41;73.78;99221.13;4946992;29;20055;-55
2022/12/23 05:01:32;;;;;;;331.98;101.28;;;;;;;12.37;74.00;99226.09;4931320;29;20141;-57
2022/12/23 05:04:22;;;;;;;314.83;97.78;;;;;;;12.37;73.71;99226.09;4942142;29;20047;-54
2022/12/23 05:07:03;;;;;;;305.65;96.80;;;;;;;12.84;72.89;99236.63;4930856;29;20618;-54
2022/12/23 05:09:53;;;;;;;331.30;100.07;;;;;;;12.60;73.71;99224.78;4936961;29;20424;-54
2022/12/23 05:12:36;;;;;;;284.80;96.85;;;;;;;12.38;74.37;99229.63;4934511;29;20078;-56
2022/12/23 05:15:25;;;;;;;325.65;100.50;;;;;;;12.53;73.98;99230.16;4936896;29;20058;-56
2022/12/23 05:18:07;;;;;;;334.45;100.82;;;;;;;12.83;73.02;99233.13;4933502;29;20078;-55
2022/12/23 05:20:57;;;;;;;317.80;97.38;;;;;;;12.30;74.36;99220.72;4935488;29;20075;-55
2022/12/23 05:23:39;;;;;;;325.17;97.43;;;;;;;12.63;74.25;99227.00;4916936;29;20155;-58
2022/12/23 05:26:27;;;;;;;304.15;95.38;;;;;;;12.09;75.21;99231.78;4931772;29;20801;-55
2022/12/23 05:29:09;;;;;;;292.00;93.03;;;;;;;12.39;74.24;99225.91;4938159;29;20147;-59
2022/12/23 05:31:58;;;;;;;295.52;93.55;;;;;;;12.62;74.46;99223.50;4936655;29;20047;-60
2022/12/23 05:34:40;;;;;;;309.30;94.25;;;;;;;12.77;73.92;99225.09;4939155;29;20043;-60
2022/12/23 05:37:30;;;;;;;309.08;94.22;;;;;;;12.77;74.02;99215.16;4594426;29;10000348;-61
2022/12/23 05:40:19;;;;;;;300.92;94.65;;;;;;;12.93;72.24;99219.19;4924511;29;20531;-56
2022/12/23 05:43:07;;;;;;;305.90;98.85;;;;;;;12.76;72.85;99220.75;4929279;29;20043;-63
2022/12/23 05:45:56;;;;;;;307.63;96.07;;;;;;;12.89;72.20;99216.09;4928101;29;20077;-61
2022/12/23 05:48:39;;;;;;;335.50;100.55;;;;;;;12.42;72.93;99220.06;4931190;29;20151;-61
2022/12/23 05:51:34;;;;;;;298.40;92.95;;;;;;;12.80;72.98;99213.88;4932127;29;20047;-60
2022/12/23 05:54:10;;;;;;;318.55;97.18;;;;;;;13.04;72.03;99209.59;4932537;29;20058;-57
2022/12/23 05:57:06;;;;;;;315.77;98.97;;;;;;;13.27;71.71;99211.72;4928394;29;20146;-55
2022/12/23 06:00:00;;;;;;;314.85;96.45;;;;;;;13.27;71.46;99198.22;4932784;29;20052;-60
2022/12/23 06:02:39;;;;;;;305.45;99.22;;;;;;;13.28;70.42;99195.31;4919610;29;20909;-53
2022/12/23 06:05:42;;;;;;;303.67;92.55;;;;;;;13.36;70.77;99199.63;4936391;29;20523;-59
2022/12/23 06:08:17;;;;;;;274.67;91.18;;;;;;;13.22;70.92;99198.06;4927821;29;20736;-58
2022/12/23 06:11:12;;;;;;;286.52;91.30;;;;;;;13.34;70.25;99199.03;4924441;29;20713;-57
2022/12/23 06:13:48;;;;;;;299.10;93.00;;;;;;;13.20;70.84;99190.19;4931053;29;20047;-57
2022/12/23 06:16:37;;;;;;;283.70;90.47;;;;;;;12.73;71.93;99179.75;4943088;29;20059;-57
2022/12/23 06:19:19;;;;;;;283.77;86.85;;;;;;;12.72;72.50;99174.56;4930280;29;20098;-56
2022/12/23 06:22:14;;;;;;;286.98;88.82;;;;;;;12.90;72.81;99174.66;4944316;29;20051;-60
2022/12/23 06:24:50;;;;;;;280.10;89.97;;;;;;;13.27;71.46;99171.28;4941331;29;20052;-56
2022/12/23 06:27:46;;;;;;;298.00;92.40;;;;;;;13.19;71.29;99166.97;4933989;29;20047;-58
2022/12/23 06:30:21;;;;;;;284.70;89.43;;;;;;;12.78;72.33;99170.19;4944537;29;20055;-54
2022/12/23 06:33:10;;;;;;;271.85;85.45;;;;;;;13.13;71.73;99165.19;4923596;29;20106;-57
2022/12/23 06:35:53;;;;;;;275.48;89.60;;;;;;;13.30;69.96;99176.28;4936980;29;20932;-53
2022/12/23 06:38:48;;;;;;;264.25;85.85;;;;;;;13.24;71.55;99163.63;4932464;29;20122;-55
2022/12/23 06:41:24;;;;;;;272.38;90.03;;;;;;;13.36;69.72;99163.78;4939560;29;20848;-55
2022/12/23 06:44:12;;;;;;;275.27;87.47;;;;;;;13.41;69.77;99145.91;4945130;29;20058;-54
2022/12/23 06:47:01;;;;;;;286.08;88.88;;;;;;;13.11;70.37;99151.91;4928173;29;20062;-55
2022/12/23 06:49:43;;;;;;;289.50;90.00;;;;;;;13.36;70.81;99148.41;4941746;29;20617;-55
2022/12/23 06:52:32;;;;;;;273.70;86.90;;;;;;;13.66;68.53;99153.94;4933102;29;20487;-56
2022/12/23 06:55:15;;;;;;;270.40;85.88;;;;;;;13.44;69.68;99147.31;4931184;29;20051;-56
2022/12/23 06:58:10;;;;;;;265.92;85.57;;;;;;;13.78;69.14;99140.53;4934918;29;20110;-57
2022/12/23 07:00:59;;;;;;;268.77;87.28;;;;;;;13.51;68.80;99140.00;4933219;29;20086;-58
2022/12/23 07:03:41;;;;;;;261.13;85.10;;;;;;;13.76;69.07;99137.25;4925162;29;20133;-54
2022/12/23 07:06:30;;;;;;;273.27;85.88;;;;;;;13.92;69.52;99135.00;4939340;29;20047;-55
2022/12/23 07:09:12;;;;;;;269.23;86.60;;;;;;;13.63;69.25;99121.19;4925186;29;20065;-55
2022/12/23 07:12:08;;;;;;;253.82;84.53;;;;;;;13.77;69.88;99109.19;4926861;29;20056;-58
2022/12/23 07:14:44;;;;;;;259.75;83.78;;;;;;;13.74;69.10;99100.72;4939966;28;20042;-56
2022/12/23 07:17:32;;;;;;;278.00;86.93;;;;;;;13.72;69.55;99098.28;4929164;29;20814;-58
2022/12/23 07:20:15;;;;;;;252.02;84.35;;;;;;;13.06;70.07;99102.41;4928730;29;20198;-55
2022/12/23 07:23:10;;;;;;;265.48;87.38;;;;;;;13.15;71.96;99100.28;4948756;29;20062;-57
2022/12/23 07:26:06;;;;;;;269.15;85.22;;;;;;;13.21;70.54;99094.81;4948187;29;20051;-57
2022/12/23 07:28:47;;;;;;;270.02;81.93;;;;;;;13.42;69.49;99090.91;4940357;29;20387;-58
2022/12/23 07:31:35;;;;;;;260.17;84.50;;;;;;;13.61;68.68;99083.66;4915438;29;20056;-57
2022/12/23 07:34:24;;;;;;;259.02;83.57;;;;;;;13.53;69.40;99081.28;4916365;29;20141;-55
2022/12/23 07:37:06;;;;;;;254.40;79.28;;;;;;;13.90;67.70;99075.84;4933418;29;20060;-55
2022/12/23 07:39:56;;;;;;;258.83;81.70;;;;;;;13.35;68.10;99078.56;4906095;29;20158;-55
2022/12/23 07:42:41;;;;;;;244.10;77.13;;;;;;;13.57;68.82;99078.97;4948852;29;20039;-56
2022/12/23 07:45:32;;;;;;;218.32;73.90;;;;;;;13.18;69.31;99086.34;4948645;29;20043;-56
2022/12/23 07:48:14;;;;;;;227.95;72.60;;;;;;;13.58;68.52;99077.88;4946368;29;20062;-56
2022/12/23 07:51:07;;;;;;;210.63;70.07;;;;;;;13.12;68.98;99080.78;4938143;29;20094;-56
2022/12/23 07:53:50;;;;;;;209.70;67.72;;;;;;;13.78;68.27;99075.78;4927605;29;20147;-56
2022/12/23 07:56:45;;;;;;;228.35;76.80;;;;;;;13.35;69.01;99071.28;4930966;29;20110;-58
2022/12/23 07:59:34;;;;;;;214.68;70.63;;;;;;;13.98;68.00;99072.84;4945776;29;20051;-55
2022/12/23 08:02:24;;;;;;;212.38;73.22;;;;;;;13.80;67.96;99068.28;4934875;29;20039;-57
2022/12/23 08:05:08;;;;;;;242.98;91.75;;;;;;;13.80;68.02;99062.91;4935095;29;20705;-56
2022/12/23 08:07:58;;;;;;;218.73;77.38;;;;;;;14.19;67.36;99058.03;4936259;29;20506;-54
2022/12/23 08:10:39;;;;;;;226.18;75.32;;;;;;;14.07;66.65;99051.78;4928494;29;20469;-57
2022/12/23 08:13:28;;;;;;;214.50;71.15;;;;;;;14.06;66.41;99048.25;4934652;29;20055;-56
2022/12/23 08:16:11;;;;;;;214.02;72.57;;;;;;;13.16;68.99;99046.13;4929791;29;20059;-56
2022/12/23 08:19:00;;;;;;;214.40;70.10;;;;;;;13.13;69.22;99043.91;4928637;29;20111;-56
2022/12/23 08:21:55;;;;;;;215.07;73.13;;;;;;;13.77;67.72;99041.75;4930298;29;20539;-55
2022/12/23 08:24:31;;;;;;;212.77;72.22;;;;;;;13.95;67.07;99035.53;4930334;29;20055;-55
2022/12/23 08:27:25;;;;;;;234.13;76.35;;;;;;;14.01;67.18;99041.91;4927435;29;20055;-53
2022/12/23 08:30:01;;;;;;;232.15;72.30;;;;;;;13.34;68.07;99026.50;4937399;29;20057;-56
2022/12/23 08:32:55;;;;;;;235.15;74.75;;;;;;;13.46;68.12;99030.09;4932700;29;20431;-60
2022/12/23 08:35:31;;;;;;;227.60;74.78;;;;;;;13.27;67.92;99029.25;4939180;29;20055;-55
2022/12/23 08:38:21;;;;;;;220.80;74.97;;;;;;;13.15;69.61;99030.22;4937116;29;20118;-58
2022/12/23 08:41:13;;;;;;;212.80;69.70;;;;;;;13.60;67.94;99024.56;4937281;29;20579;-56
2022/12/23 08:43:56;;;;;;;204.80;70.72;;;;;;;13.36;68.28;99023.59;4931944;29;20058;-55
2022/12/23 08:46:46;;;;;;;212.20;69.90;;;;;;;13.07;69.31;99029.47;4927310;29;20146;-56
2022/12/23 08:49:41;;;;;;;224.77;73.03;;;;;;;13.41;69.03;99021.88;4935185;29;20055;-56
2022/12/23 08:52:17;;;;;;;226.68;73.40;;;;;;;13.55;67.87;99021.69;4934283;28;20098;-59
2022/12/23 08:55:12;;;;;;;212.23;72.00;;;;;;;13.65;67.26;99013.91;4938207;29;20121;-55
2022/12/23 08:57:54;;;;;;;207.23;71.00;;;;;;;13.92;66.67;99000.91;4930003;29;20048;-58
2022/12/23 09:00:45;;;;;;;211.90;71.53;;;;;;;13.66;68.27;99002.91;4937741;29;20627;-55
2022/12/23 09:03:32;;;;;;;215.38;72.20;;;;;;;13.41;68.54;99011.09;4715040;28;10001293;-59
2022/12/23 09:06:26;;;;;;;218.65;71.28;;;;;;;13.98;67.58;99016.16;4941962;29;20259;-51
2022/12/23 09:09:13;;;;;;;188.55;67.88;;;;;;;13.57;67.28;99020.44;4933740;29;20095;-55
2022/12/23 09:12:01;;;;;;;209.50;70.20;;;;;;;14.02;66.87;99016.53;4930992;29;20067;-56
2022/12/23 09:14:46;;;;;;;206.57;68.82;;;;;;;13.74;67.51;99015.25;4916302;29;20052;-55
2022/12/23 09:17:35;;;;;;;210.75;67.80;;;;;;;13.77;68.44;99012.09;4931518;29;20173;-56
2022/12/23 09:20:17;;;;;;;215.50;73.78;;;;;;;13.57;68.51;99008.84;4931248;29;20122;-54
2022/12/23 09:23:07;;;;;;;203.52;67.60;;;;;;;14.01;67.37;98999.53;4932483;29;20059;-55
2022/12/23 09:25:57;;;;;;;230.38;71.78;;;;;;;13.68;67.59;99008.06;4931988;29;20082;-57
2022/12/23 09:28:39;;;;;;;210.85;72.40;;;;;;;13.53;68.68;98997.69;4941240;29;20062;-56
2022/12/23 09:31:28;;;;;;;204.93;69.30;;;;;;;14.01;66.92;98996.84;4944021;29;20758;-54
2022/12/23 09:34:17;;;;;;;205.95;67.75;;;;;;;13.46;69.17;98995.06;4938259;29;20055;-53
2022/12/23 09:37:15;;;;;;;201.68;67.57;;;;;;;13.65;68.25;98986.94;4929513;29;20058;-54
2022/12/23 09:39:51;;;;;;;188.38;66.65;;;;;;;13.63;68.13;98983.66;4938882;29;20118;-54
2022/12/23 09:43:20;;;;;;;198.63;63.92;;;;;;;13.87;67.76;98984.56;4910590;29;20143;-51
2022/12/23 09:46:11;;;;;;;203.07;65.43;;;;;;;13.41;68.54;98984.13;4924477;29;20051;-56
2022/12/23 09:49:10;;;;;;;190.27;64.78;;;;;;;13.78;68.20;98970.59;4934370;29;20066;-53
2022/12/23 09:52:03;;;;;;;185.02;65.95;;;;;;;13.61;68.34;98977.69;4942755;29;20118;-56
2022/12/23 09:54:50;;;;;;;174.60;62.90;;;;;;;13.43;68.32;98976.66;4929813;29;20141;-53
2022/12/23 09:57:59;;;;;;;177.55;64.13;;;;;;;13.46;68.88;98972.66;4632844;29;9102400;-54
2022/12/23 10:01:03;;;;;;;169.73;60.45;;;;;;;13.57;69.06;98971.09;4928915;29;20170;-55
2022/12/23 10:04:24;;;;;;;171.15;59.15;;;;;;;13.76;68.81;98964.59;4933552;29;20917;-52
2022/12/23 10:07:13;;;;;;;183.27;61.15;;;;;;;13.95;67.60;98967.22;4916235;29;21439;-50
2022/12/23 10:09:58;;;;;;;175.40;64.20;;;;;;;13.68;68.42;98964.91;4940881;29;20572;-54
2022/12/23 10:12:50;;;;;;;176.75;62.17;;;;;;;13.19;69.67;98969.44;4935372;29;20553;-51
2022/12/23 10:15:46;;;;;;;176.02;62.83;;;;;;;13.15;70.55;98954.78;4933079;29;20052;-55
2022/12/23 10:19:00;;;;;;;170.00;58.85;;;;;;;13.73;68.67;98964.25;4934198;29;20055;-54
2022/12/23 10:21:45;;;;;;;177.73;61.78;;;;;;;13.81;68.64;98961.22;4935539;29;20067;-52
2022/12/23 10:24:46;;;;;;;181.45;61.75;;;;;;;13.63;68.59;98954.00;4935244;29;20043;-53
2022/12/23 10:27:31;;;;;;;171.55;60.13;;;;;;;13.69;68.31;98956.59;4933761;29;20055;-51
2022/12/23 10:30:22;;;;;;;167.13;58.17;;;;;;;13.86;67.94;98959.47;4934946;29;20047;-49
2022/12/23 10:33:50;;;;;;;162.45;55.97;;;;;;;13.95;68.14;98956.44;4936579;29;20658;-54
2022/12/23 10:36:57;;;;;;;159.45;55.35;;;;;;;13.31;68.88;98951.47;4931996;29;20055;-53
2022/12/23 10:40:18;;;;;;;156.48;58.90;;;;;;;13.44;69.10;98945.13;4936509;29;20071;-55
2022/12/23 10:43:15;;;;;;;159.27;56.85;;;;;;;13.74;68.17;98947.81;4934375;29;20051;-56
2022/12/23 10:46:34;;;;;;;159.10;56.22;;;;;;;13.39;69.29;98940.38;4941956;29;20118;-58
2022/12/23 10:49:30;;;;;;;162.10;55.53;;;;;;;13.68;68.29;98936.09;4936963;29;20051;-58
2022/12/23 10:52:28;;;;;;;150.52;56.58;;;;;;;13.77;68.21;98941.97;4939494;29;20052;-51
2022/12/23 10:55:25;;;;;;;171.05;58.63;;;;;;;13.56;68.48;98937.06;4937533;28;20044;-53
2022/12/23 10:58:22;;;;;;;163.40;57.35;;;;;;;13.24;69.81;98931.84;4929672;29;20043;-51
2022/12/23 11:01:16;;;;;;;162.45;57.58;;;;;;;13.34;69.65;98940.25;4935161;29;20056;-52
2022/12/23 11:04:21;;;;;;;153.75;56.17;;;;;;;13.39;69.30;98932.28;4932569;29;20734;-52
2022/12/23 11:07:31;;;;;;;143.15;54.45;;;;;;;13.13;70.72;98928.84;4936294;29;20055;-52
2022/12/23 11:10:34;;;;;;;160.20;55.58;;;;;;;13.38;70.05;98924.47;4934917;29;20573;-52
2022/12/23 11:13:33;;;;;;;162.32;59.38;;;;;;;13.15;70.30;98930.50;4936947;29;20058;-53
2022/12/23 11:16:33;;;;;;;160.68;56.50;;;;;;;13.29;70.06;98934.69;4930380;29;20110;-54
2022/12/23 11:19:22;;;;;;;156.90;55.78;;;;;;;13.01;70.88;98933.38;4925918;29;20074;-53
2022/12/23 11:22:11;;;;;;;162.98;59.45;;;;;;;13.19;70.20;98934.41;4938928;29;20134;-56
2022/12/23 11:25:37;;;;;;;154.68;55.25;;;;;;;13.39;70.22;98931.47;4939469;29;20052;-56
2022/12/23 11:28:26;;;;;;;170.15;58.67;;;;;;;13.39;69.63;98921.50;4877816;29;20057;-55
2022/12/23 11:31:13;;;;;;;159.27;57.88;;;;;;;13.27;69.90;98924.13;4939831;29;20062;-58
2022/12/23 11:34:05;;;;;;;167.70;59.80;;;;;;;13.44;70.32;98927.06;4928602;29;20044;-55
2022/12/23 11:36:59;;;;;;;172.50;59.30;;;;;;;13.42;70.56;98928.34;4936120;29;20063;-53
2022/12/23 11:39:51;;;;;;;174.32;60.67;;;;;;;13.23;70.36;98927.50;4938084;29;20055;-54
2022/12/23 11:42:34;;;;;;;178.57;61.50;;;;;;;12.93;70.97;98934.47;4939473;29;20071;-54
2022/12/23 11:45:31;;;;;;;166.10;61.95;;;;;;;12.91;71.63;98924.97;4939865;29;20102;-55
2022/12/23 11:48:29;;;;;;;171.82;62.13;;;;;;;13.15;71.51;98925.94;4941102;29;20075;-55
2022/12/23 11:51:17;;;;;;;183.13;62.30;;;;;;;13.00;71.43;98929.00;4247491;29;10000315;-54
2022/12/23 11:54:01;;;;;;;190.07;71.53;;;;;;;12.71;72.33;98927.88;4938530;29;20058;-54
2022/12/23 11:56:53;;;;;;;202.88;80.72;;;;;;;12.78;72.60;98919.72;4930846;29;20163;-50
2022/12/23 11:59:42;;;;;;;217.00;83.30;;;;;;;12.90;72.40;98923.34;4928353;29;20061;-52
2022/12/23 12:02:51;;;;;;;214.93;85.70;;;;;;;12.95;72.60;98928.03;4909865;29;20058;-53
2022/12/23 12:05:47;;;;;;;216.10;88.07;;;;;;;12.98;72.36;98920.31;4901045;29;20078;-50
2022/12/23 12:08:43;;;;;;;239.05;100.15;;;;;;;12.96;72.36;98922.44;4915192;29;20107;-56
2022/12/23 12:11:43;;;;;;;254.13;113.43;;;;;;;13.00;72.29;98934.41;4926215;29;20106;-52
2022/12/23 12:14:37;;;;;;;268.13;119.38;;;;;;;12.82;72.62;98920.91;4929610;29;20051;-53
2022/12/23 12:17:41;;;;;;;238.95;102.35;;;;;;;12.57;73.04;98929.03;4911511;29;20624;-53
2022/12/23 12:20:35;;;;;;;239.80;94.68;;;;;;;12.52;73.86;98927.84;4919279;29;20051;-55
2022/12/23 12:23:22;;;;;;;223.05;91.57;;;;;;;12.72;72.79;98933.03;4908013;29;20091;-53
2022/12/23 12:26:23;;;;;;;234.73;92.65;;;;;;;12.66;72.65;98939.28;4916940;29;20495;-55
2022/12/23 12:29:19;;;;;;;221.63;89.85;;;;;;;12.52;73.10;98932.41;4918896;29;20561;-59
2022/12/23 12:32:12;;;;;;;215.73;84.32;;;;;;;12.51;73.38;98942.34;4916790;29;20075;-57
2022/12/23 12:35:30;;;;;;;224.32;86.28;;;;;;;12.43;74.12;98939.09;4923492;29;20051;-55
2022/12/23 12:38:25;;;;;;;210.95;82.53;;;;;;;12.56;73.82;98935.47;4847407;29;20422;-55
2022/12/23 12:41:13;;;;;;;207.85;85.20;;;;;;;12.52;73.88;98938.59;4919359;29;20056;-52
2022/12/23 12:44:08;;;;;;;211.30;85.72;;;;;;;12.45;74.07;98942.41;4904833;29;20551;-53
2022/12/23 12:46:57;;;;;;;212.48;84.18;;;;;;;12.35;74.02;98950.97;4925114;29;20091;-55
2022/12/23 12:50:13;;;;;;;207.65;82.10;;;;;;;12.36;74.50;98954.47;4925097;29;20130;-56
2022/12/23 12:53:02;;;;;;;212.50;82.78;;;;;;;12.31;74.48;98950.59;4921900;29;20107;-54
2022/12/23 12:55:57;;;;;;;213.93;82.30;;;;;;;12.49;74.32;98959.75;4920002;29;20052;-54
2022/12/23 12:58:40;;;;;;;214.00;80.50;;;;;;;12.57;73.54;98964.84;4936443;29;20055;-57
2022/12/23 13:02:04;;;;;;;225.18;82.25;;;;;;;12.58;74.14;98963.81;4937650;29;20043;-55
2022/12/23 13:04:46;;;;;;;210.15;81.55;;;;;;;12.65;73.25;98953.81;4913484;29;20075;-55
2022/12/23 13:07:53;;;;;;;187.98;73.22;;;;;;;12.59;72.79;98964.63;4945493;29;20047;-55
2022/12/23 13:10:35;;;;;;;178.00;72.30;;;;;;;12.58;72.97;98974.59;4945361;29;20055;-55
2022/12/23 13:13:49;;;;;;;192.05;70.05;;;;;;;12.35;73.59;98980.56;4929942;29;20079;-57
2022/12/23 13:16:58;;;;;;;169.85;73.47;;;;;;;12.46;73.65;98993.31;4937639;29;20055;-56
2022/12/23 13:20:24;;;;;;;194.82;84.28;;;;;;;12.13;74.75;98988.16;4902269;29;20060;-55
2022/12/23 13:23:22;;;;;;;214.35;85.93;;;;;;;12.12;74.55;98987.34;4941161;29;20640;-52
2022/12/23 13:26:33;;;;;;;228.95;102.75;;;;;;;12.10;74.19;98997.50;4932401;29;20055;-50
2022/12/23 13:29:36;;;;;;;223.18;102.18;;;;;;;11.97;74.82;98997.59;4934257;29;20150;-49
2022/12/23 13:32:48;;;;;;;210.68;95.05;;;;;;;12.25;74.98;99002.59;4919806;29;20044;-56